sensor_id;sensor_type;location;lat;lon;timestamp;temperature;humidity
33271;DHT22;53180;51.344;6.152;2023-01-28T00:01:34;3.50;82.20
33271;DHT22;53180;51.344;6.152;2023-01-28T00:04:02;3.50;82.00
33271;DHT22;53180;51.344;6.152;2023-01-28T00:06:32;3.50;81.80
33271;DHT22;53180;51.344;6.152;2023-01-28T00:09:01;3.50;81.90
33271;DHT22;53180;51.344;6.152;2023-01-28T00:11:29;3.50;82.10
33271;DHT22;53180;51.344;6.152;2023-01-28T00:13:58;3.50;82.20
33271;DHT22;53180;51.344;6.152;2023-01-28T00:16:26;3.50;82.20
33271;DHT22;53180;51.344;6.152;2023-01-28T00:18:56;3.40;81.70
33271;DHT22;53180;51.344;6.152;2023-01-28T00:21:24;3.40;81.50
33271;DHT22;53180;51.344;6.152;2023-01-28T00:23:55;3.40;81.50
33271;DHT22;53180;51.344;6.152;2023-01-28T00:26:24;3.40;81.50
33271;DHT22;53180;51.344;6.152;2023-01-28T00:28:53;3.40;81.40
33271;DHT22;53180;51.344;6.152;2023-01-28T00:31:23;3.40;81.70
33271;DHT22;53180;51.344;6.152;2023-01-28T00:33:54;3.40;81.50
33271;DHT22;53180;51.344;6.152;2023-01-28T00:36:24;3.40;81.50
33271;DHT22;53180;51.344;6.152;2023-01-28T00:38:56;3.30;80.80
33271;DHT22;53180;51.344;6.152;2023-01-28T00:41:27;3.30;80.40
33271;DHT22;53180;51.344;6.152;2023-01-28T00:43:56;3.30;80.20
33271;DHT22;53180;51.344;6.152;2023-01-28T00:46:25;3.30;79.60
33271;DHT22;53180;51.344;6.152;2023-01-28T00:48:53;3.20;79.80
33271;DHT22;53180;51.344;6.152;2023-01-28T00:51:22;3.30;79.60
33271;DHT22;53180;51.344;6.152;2023-01-28T00:53:50;3.20;79.60
33271;DHT22;53180;51.344;6.152;2023-01-28T00:56:20;3.20;79.00
33271;DHT22;53180;51.344;6.152;2023-01-28T00:58:48;3.20;79.40
33271;DHT22;53180;51.344;6.152;2023-01-28T01:01:19;3.20;79.20
33271;DHT22;53180;51.344;6.152;2023-01-28T01:03:50;3.20;79.50
33271;DHT22;53180;51.344;6.152;2023-01-28T01:06:24;3.20;79.60
33271;DHT22;53180;51.344;6.152;2023-01-28T01:08:52;3.20;79.30
33271;DHT22;53180;51.344;6.152;2023-01-28T01:11:22;3.20;79.50
33271;DHT22;53180;51.344;6.152;2023-01-28T01:13:52;3.20;79.50
33271;DHT22;53180;51.344;6.152;2023-01-28T01:16:23;3.20;79.80
33271;DHT22;53180;51.344;6.152;2023-01-28T01:18:53;3.20;79.90
33271;DHT22;53180;51.344;6.152;2023-01-28T01:21:23;3.20;80.10
33271;DHT22;53180;51.344;6.152;2023-01-28T01:23:54;3.20;80.20
33271;DHT22;53180;51.344;6.152;2023-01-28T01:26:24;3.20;80.20
33271;DHT22;53180;51.344;6.152;2023-01-28T01:28:53;3.20;80.10
33271;DHT22;53180;51.344;6.152;2023-01-28T01:31:22;3.20;80.30
33271;DHT22;53180;51.344;6.152;2023-01-28T01:33:51;3.20;80.50
33271;DHT22;53180;51.344;6.152;2023-01-28T01:36:19;3.20;80.40
33271;DHT22;53180;51.344;6.152;2023-01-28T01:38:52;3.20;80.30
33271;DHT22;53180;51.344;6.152;2023-01-28T01:41:26;3.10;80.30
33271;DHT22;53180;51.344;6.152;2023-01-28T01:43:58;3.20;80.20
33271;DHT22;53180;51.344;6.152;2023-01-28T01:46:32;3.10;79.90
33271;DHT22;53180;51.344;6.152;2023-01-28T01:49:07;3.10;80.20
33271;DHT22;53180;51.344;6.152;2023-01-28T01:51:42;3.10;80.10
33271;DHT22;53180;51.344;6.152;2023-01-28T01:54:12;3.10;80.00
33271;DHT22;53180;51.344;6.152;2023-01-28T01:56:43;3.10;79.80
33271;DHT22;53180;51.344;6.152;2023-01-28T01:59:19;3.10;79.60
33271;DHT22;53180;51.344;6.152;2023-01-28T02:01:49;3.00;79.40
33271;DHT22;53180;51.344;6.152;2023-01-28T02:04:19;3.00;79.60
33271;DHT22;53180;51.344;6.152;2023-01-28T02:06:51;3.00;79.60
33271;DHT22;53180;51.344;6.152;2023-01-28T02:09:22;3.00;79.70
33271;DHT22;53180;51.344;6.152;2023-01-28T02:11:54;3.00;79.80
33271;DHT22;53180;51.344;6.152;2023-01-28T02:14:32;3.00;79.70
33271;DHT22;53180;51.344;6.152;2023-01-28T02:17:03;3.00;79.70
33271;DHT22;53180;51.344;6.152;2023-01-28T02:19:36;2.90;80.00
33271;DHT22;53180;51.344;6.152;2023-01-28T02:22:26;2.90;80.00
33271;DHT22;53180;51.344;6.152;2023-01-28T02:25:34;2.90;80.10
33271;DHT22;53180;51.344;6.152;2023-01-28T02:28:20;2.90;79.80
33271;DHT22;53180;51.344;6.152;2023-01-28T02:30:54;2.90;79.90
33271;DHT22;53180;51.344;6.152;2023-01-28T02:33:29;2.80;79.80
33271;DHT22;53180;51.344;6.152;2023-01-28T02:36:08;2.80;79.40
33271;DHT22;53180;51.344;6.152;2023-01-28T02:38:45;2.80;79.40
33271;DHT22;53180;51.344;6.152;2023-01-28T02:41:22;2.70;79.20
33271;DHT22;53180;51.344;6.152;2023-01-28T02:43:54;2.70;79.10
33271;DHT22;53180;51.344;6.152;2023-01-28T02:46:33;2.70;79.10
33271;DHT22;53180;51.344;6.152;2023-01-28T02:49:26;2.70;79.40
33271;DHT22;53180;51.344;6.152;2023-01-28T02:52:14;2.60;79.00
33271;DHT22;53180;51.344;6.152;2023-01-28T02:55:08;2.60;78.90
33271;DHT22;53180;51.344;6.152;2023-01-28T02:57:44;2.60;79.00
33271;DHT22;53180;51.344;6.152;2023-01-28T03:00:22;2.60;79.00
33271;DHT22;53180;51.344;6.152;2023-01-28T03:02:59;2.60;78.80
33271;DHT22;53180;51.344;6.152;2023-01-28T03:05:36;2.50;78.60
33271;DHT22;53180;51.344;6.152;2023-01-28T03:08:06;2.50;78.80
33271;DHT22;53180;51.344;6.152;2023-01-28T03:10:50;2.50;78.70
33271;DHT22;53180;51.344;6.152;2023-01-28T03:13:37;2.50;79.00
33271;DHT22;53180;51.344;6.152;2023-01-28T03:16:26;2.50;79.20
33271;DHT22;53180;51.344;6.152;2023-01-28T03:19:12;2.50;79.10
33271;DHT22;53180;51.344;6.152;2023-01-28T03:21:58;2.50;79.10
33271;DHT22;53180;51.344;6.152;2023-01-28T03:24:48;2.50;79.50
33271;DHT22;53180;51.344;6.152;2023-01-28T03:27:39;2.50;79.30
33271;DHT22;53180;51.344;6.152;2023-01-28T03:30:39;2.50;79.40
33271;DHT22;53180;51.344;6.152;2023-01-28T03:33:29;2.50;79.40
33271;DHT22;53180;51.344;6.152;2023-01-28T03:36:16;2.50;79.70
33271;DHT22;53180;51.344;6.152;2023-01-28T03:39:03;2.50;79.50
33271;DHT22;53180;51.344;6.152;2023-01-28T03:41:31;2.40;79.50
33271;DHT22;53180;51.344;6.152;2023-01-28T03:43:59;2.40;79.40
33271;DHT22;53180;51.344;6.152;2023-01-28T03:46:45;2.40;79.80
33271;DHT22;53180;51.344;6.152;2023-01-28T03:49:16;2.40;79.80
33271;DHT22;53180;51.344;6.152;2023-01-28T03:51:44;2.40;79.40
33271;DHT22;53180;51.344;6.152;2023-01-28T03:54:13;2.40;79.50
33271;DHT22;53180;51.344;6.152;2023-01-28T03:56:41;2.40;79.50
33271;DHT22;53180;51.344;6.152;2023-01-28T03:59:09;2.40;79.70
33271;DHT22;53180;51.344;6.152;2023-01-28T04:01:38;2.40;79.60
33271;DHT22;53180;51.344;6.152;2023-01-28T04:04:06;2.40;79.60
33271;DHT22;53180;51.344;6.152;2023-01-28T04:06:50;2.40;79.80
33271;DHT22;53180;51.344;6.152;2023-01-28T04:09:19;2.40;79.80
33271;DHT22;53180;51.344;6.152;2023-01-28T04:11:48;2.30;79.40
33271;DHT22;53180;51.344;6.152;2023-01-28T04:14:17;2.40;79.90
33271;DHT22;53180;51.344;6.152;2023-01-28T04:16:46;2.40;79.70
33271;DHT22;53180;51.344;6.152;2023-01-28T04:19:14;2.30;79.50
33271;DHT22;53180;51.344;6.152;2023-01-28T04:21:43;2.40;79.90
33271;DHT22;53180;51.344;6.152;2023-01-28T04:24:12;2.30;79.30
33271;DHT22;53180;51.344;6.152;2023-01-28T04:26:41;2.30;79.20
33271;DHT22;53180;51.344;6.152;2023-01-28T04:29:09;2.40;79.00
33271;DHT22;53180;51.344;6.152;2023-01-28T04:31:37;2.30;78.60
33271;DHT22;53180;51.344;6.152;2023-01-28T04:34:06;2.30;78.60
33271;DHT22;53180;51.344;6.152;2023-01-28T04:36:35;2.30;78.50
33271;DHT22;53180;51.344;6.152;2023-01-28T04:39:03;2.30;78.70
33271;DHT22;53180;51.344;6.152;2023-01-28T04:41:33;2.20;78.40
33271;DHT22;53180;51.344;6.152;2023-01-28T04:44:01;2.20;78.50
33271;DHT22;53180;51.344;6.152;2023-01-28T04:46:29;2.20;77.80
33271;DHT22;53180;51.344;6.152;2023-01-28T04:48:58;2.20;77.40
33271;DHT22;53180;51.344;6.152;2023-01-28T04:51:26;2.20;77.70
33271;DHT22;53180;51.344;6.152;2023-01-28T04:53:54;2.10;77.70
33271;DHT22;53180;51.344;6.152;2023-01-28T04:56:23;2.20;77.70
33271;DHT22;53180;51.344;6.152;2023-01-28T04:58:52;2.20;77.70
33271;DHT22;53180;51.344;6.152;2023-01-28T05:01:21;2.10;77.30
33271;DHT22;53180;51.344;6.152;2023-01-28T05:03:50;2.10;77.50
33271;DHT22;53180;51.344;6.152;2023-01-28T05:06:19;2.10;77.50
33271;DHT22;53180;51.344;6.152;2023-01-28T05:08:47;2.10;77.20
33271;DHT22;53180;51.344;6.152;2023-01-28T05:11:15;2.10;77.40
33271;DHT22;53180;51.344;6.152;2023-01-28T05:13:44;2.10;77.40
33271;DHT22;53180;51.344;6.152;2023-01-28T05:16:13;2.10;77.60
33271;DHT22;53180;51.344;6.152;2023-01-28T05:18:42;2.10;78.00
33271;DHT22;53180;51.344;6.152;2023-01-28T05:21:13;2.10;78.00
33271;DHT22;53180;51.344;6.152;2023-01-28T05:23:42;2.10;77.70
33271;DHT22;53180;51.344;6.152;2023-01-28T05:26:10;2.00;77.00
33271;DHT22;53180;51.344;6.152;2023-01-28T05:28:39;2.00;77.20
33271;DHT22;53180;51.344;6.152;2023-01-28T05:31:08;2.00;77.70
33271;DHT22;53180;51.344;6.152;2023-01-28T05:33:38;2.00;76.90
33271;DHT22;53180;51.344;6.152;2023-01-28T05:36:07;2.00;77.40
33271;DHT22;53180;51.344;6.152;2023-01-28T05:38:35;2.00;76.90
33271;DHT22;53180;51.344;6.152;2023-01-28T05:41:03;2.00;77.20
33271;DHT22;53180;51.344;6.152;2023-01-28T05:43:32;2.00;77.20
33271;DHT22;53180;51.344;6.152;2023-01-28T05:46:00;2.00;77.70
33271;DHT22;53180;51.344;6.152;2023-01-28T05:48:28;2.00;76.90
33271;DHT22;53180;51.344;6.152;2023-01-28T05:50:58;2.00;76.60
33271;DHT22;53180;51.344;6.152;2023-01-28T05:53:27;2.00;77.20
33271;DHT22;53180;51.344;6.152;2023-01-28T05:55:55;2.00;77.20
33271;DHT22;53180;51.344;6.152;2023-01-28T05:58:24;2.00;77.30
33271;DHT22;53180;51.344;6.152;2023-01-28T06:00:56;2.00;77.50
33271;DHT22;53180;51.344;6.152;2023-01-28T06:03:25;2.00;78.00
33271;DHT22;53180;51.344;6.152;2023-01-28T06:05:53;2.00;77.80
33271;DHT22;53180;51.344;6.152;2023-01-28T06:08:22;2.00;77.80
33271;DHT22;53180;51.344;6.152;2023-01-28T06:10:51;2.00;76.80
33271;DHT22;53180;51.344;6.152;2023-01-28T06:13:19;2.00;76.80
33271;DHT22;53180;51.344;6.152;2023-01-28T06:15:48;2.00;76.60
33271;DHT22;53180;51.344;6.152;2023-01-28T06:18:17;1.90;76.00
33271;DHT22;53180;51.344;6.152;2023-01-28T06:20:48;1.90;76.30
33271;DHT22;53180;51.344;6.152;2023-01-28T06:23:16;1.90;76.10
33271;DHT22;53180;51.344;6.152;2023-01-28T06:25:46;1.90;76.70
33271;DHT22;53180;51.344;6.152;2023-01-28T06:28:14;1.90;76.20
33271;DHT22;53180;51.344;6.152;2023-01-28T06:30:42;1.90;76.60
33271;DHT22;53180;51.344;6.152;2023-01-28T06:33:11;1.90;76.50
33271;DHT22;53180;51.344;6.152;2023-01-28T06:35:39;1.80;76.70
33271;DHT22;53180;51.344;6.152;2023-01-28T06:38:08;1.90;76.50
33271;DHT22;53180;51.344;6.152;2023-01-28T06:40:37;1.90;76.60
33271;DHT22;53180;51.344;6.152;2023-01-28T06:43:06;1.90;76.70
33271;DHT22;53180;51.344;6.152;2023-01-28T06:45:35;1.90;76.70
33271;DHT22;53180;51.344;6.152;2023-01-28T06:48:04;1.90;76.70
33271;DHT22;53180;51.344;6.152;2023-01-28T06:50:34;1.80;76.90
33271;DHT22;53180;51.344;6.152;2023-01-28T06:53:02;1.90;77.10
33271;DHT22;53180;51.344;6.152;2023-01-28T06:55:31;1.90;76.90
33271;DHT22;53180;51.344;6.152;2023-01-28T06:57:59;1.90;76.80
33271;DHT22;53180;51.344;6.152;2023-01-28T07:00:29;1.80;76.80
33271;DHT22;53180;51.344;6.152;2023-01-28T07:02:57;1.80;76.20
33271;DHT22;53180;51.344;6.152;2023-01-28T07:05:26;1.80;76.20
33271;DHT22;53180;51.344;6.152;2023-01-28T07:07:54;1.80;76.10
33271;DHT22;53180;51.344;6.152;2023-01-28T07:10:22;1.80;76.10
33271;DHT22;53180;51.344;6.152;2023-01-28T07:12:51;1.80;76.70
33271;DHT22;53180;51.344;6.152;2023-01-28T07:15:19;1.80;76.90
33271;DHT22;53180;51.344;6.152;2023-01-28T07:17:48;1.80;76.80
33271;DHT22;53180;51.344;6.152;2023-01-28T07:20:17;1.80;77.30
33271;DHT22;53180;51.344;6.152;2023-01-28T07:22:45;1.80;77.70
33271;DHT22;53180;51.344;6.152;2023-01-28T07:25:14;1.80;77.10
33271;DHT22;53180;51.344;6.152;2023-01-28T07:27:47;1.80;77.00
33271;DHT22;53180;51.344;6.152;2023-01-28T07:30:17;1.80;77.10
33271;DHT22;53180;51.344;6.152;2023-01-28T07:32:51;1.80;76.70
33271;DHT22;53180;51.344;6.152;2023-01-28T07:35:20;1.80;76.80
33271;DHT22;53180;51.344;6.152;2023-01-28T07:37:52;1.80;77.00
33271;DHT22;53180;51.344;6.152;2023-01-28T07:40:21;1.80;76.50
33271;DHT22;53180;51.344;6.152;2023-01-28T07:42:50;1.80;76.70
33271;DHT22;53180;51.344;6.152;2023-01-28T07:45:21;1.80;76.70
33271;DHT22;53180;51.344;6.152;2023-01-28T07:47:55;1.80;77.00
33271;DHT22;53180;51.344;6.152;2023-01-28T07:50:25;1.80;77.10
33271;DHT22;53180;51.344;6.152;2023-01-28T07:52:55;1.80;77.20
33271;DHT22;53180;51.344;6.152;2023-01-28T07:55:24;1.80;77.20
33271;DHT22;53180;51.344;6.152;2023-01-28T07:57:57;1.80;77.20
33271;DHT22;53180;51.344;6.152;2023-01-28T08:00:28;1.80;77.70
33271;DHT22;53180;51.344;6.152;2023-01-28T08:02:59;1.80;77.40
33271;DHT22;53180;51.344;6.152;2023-01-28T08:05:35;1.80;77.60
33271;DHT22;53180;51.344;6.152;2023-01-28T08:08:07;1.80;76.50
33271;DHT22;53180;51.344;6.152;2023-01-28T08:10:36;1.90;76.60
33271;DHT22;53180;51.344;6.152;2023-01-28T08:13:05;1.80;77.00
33271;DHT22;53180;51.344;6.152;2023-01-28T08:15:34;1.80;76.90
33271;DHT22;53180;51.344;6.152;2023-01-28T08:18:04;1.80;77.00
33271;DHT22;53180;51.344;6.152;2023-01-28T08:20:33;1.90;76.80
33271;DHT22;53180;51.344;6.152;2023-01-28T08:23:06;1.80;77.10
33271;DHT22;53180;51.344;6.152;2023-01-28T08:25:35;1.90;77.70
33271;DHT22;53180;51.344;6.152;2023-01-28T08:28:04;1.90;77.20
33271;DHT22;53180;51.344;6.152;2023-01-28T08:30:33;1.90;77.30
33271;DHT22;53180;51.344;6.152;2023-01-28T08:33:06;1.90;77.30
33271;DHT22;53180;51.344;6.152;2023-01-28T08:35:35;2.00;77.80
33271;DHT22;53180;51.344;6.152;2023-01-28T08:38:05;2.00;77.50
33271;DHT22;53180;51.344;6.152;2023-01-28T08:40:34;2.00;77.20
33271;DHT22;53180;51.344;6.152;2023-01-28T08:43:03;1.90;76.80
33271;DHT22;53180;51.344;6.152;2023-01-28T08:45:31;1.90;76.70
33271;DHT22;53180;51.344;6.152;2023-01-28T08:48:01;1.90;77.00
33271;DHT22;53180;51.344;6.152;2023-01-28T08:50:32;1.90;76.90
33271;DHT22;53180;51.344;6.152;2023-01-28T08:53:05;1.90;77.30
33271;DHT22;53180;51.344;6.152;2023-01-28T08:55:34;2.00;77.30
33271;DHT22;53180;51.344;6.152;2023-01-28T08:58:04;2.00;77.50
33271;DHT22;53180;51.344;6.152;2023-01-28T09:00:33;2.00;77.30
33271;DHT22;53180;51.344;6.152;2023-01-28T09:03:02;2.00;77.10
33271;DHT22;53180;51.344;6.152;2023-01-28T09:05:34;2.00;77.50
33271;DHT22;53180;51.344;6.152;2023-01-28T09:08:04;2.00;77.50
33271;DHT22;53180;51.344;6.152;2023-01-28T09:10:34;2.00;77.30
33271;DHT22;53180;51.344;6.152;2023-01-28T09:13:06;2.00;77.40
33271;DHT22;53180;51.344;6.152;2023-01-28T09:15:36;2.00;76.90
33271;DHT22;53180;51.344;6.152;2023-01-28T09:18:05;2.00;77.30
33271;DHT22;53180;51.344;6.152;2023-01-28T09:20:36;2.00;77.70
33271;DHT22;53180;51.344;6.152;2023-01-28T09:23:04;2.10;77.60
33271;DHT22;53180;51.344;6.152;2023-01-28T09:25:33;2.10;76.80
33271;DHT22;53180;51.344;6.152;2023-01-28T09:28:03;2.00;77.40
33271;DHT22;53180;51.344;6.152;2023-01-28T09:30:32;2.00;76.90
33271;DHT22;53180;51.344;6.152;2023-01-28T09:33:03;2.00;76.80
33271;DHT22;53180;51.344;6.152;2023-01-28T09:35:32;2.00;76.90
33271;DHT22;53180;51.344;6.152;2023-01-28T09:38:02;2.00;77.00
33271;DHT22;53180;51.344;6.152;2023-01-28T09:40:34;1.90;76.20
33271;DHT22;53180;51.344;6.152;2023-01-28T09:43:23;1.90;76.40
33271;DHT22;53180;51.344;6.152;2023-01-28T09:46:01;1.90;76.10
33271;DHT22;53180;51.344;6.152;2023-01-28T09:48:33;1.90;77.00
33271;DHT22;53180;51.344;6.152;2023-01-28T09:51:08;1.90;77.20
33271;DHT22;53180;51.344;6.152;2023-01-28T09:53:41;2.00;76.60
33271;DHT22;53180;51.344;6.152;2023-01-28T09:56:14;1.90;76.60
33271;DHT22;53180;51.344;6.152;2023-01-28T09:58:46;1.90;76.60
33271;DHT22;53180;51.344;6.152;2023-01-28T10:01:31;2.00;76.70
33271;DHT22;53180;51.344;6.152;2023-01-28T10:04:13;2.00;76.20
33271;DHT22;53180;51.344;6.152;2023-01-28T10:06:56;1.90;76.10
33271;DHT22;53180;51.344;6.152;2023-01-28T10:09:37;1.90;76.50
33271;DHT22;53180;51.344;6.152;2023-01-28T10:12:21;2.00;76.20
33271;DHT22;53180;51.344;6.152;2023-01-28T10:15:20;2.00;76.30
33271;DHT22;53180;51.344;6.152;2023-01-28T10:17:57;2.00;75.60
33271;DHT22;53180;51.344;6.152;2023-01-28T10:20:45;2.00;75.90
33271;DHT22;53180;51.344;6.152;2023-01-28T10:23:19;2.00;75.60
33271;DHT22;53180;51.344;6.152;2023-01-28T10:25:50;2.00;75.30
33271;DHT22;53180;51.344;6.152;2023-01-28T10:28:21;2.00;75.10
33271;DHT22;53180;51.344;6.152;2023-01-28T10:30:51;2.00;75.10
33271;DHT22;53180;51.344;6.152;2023-01-28T10:33:22;2.00;75.70
33271;DHT22;53180;51.344;6.152;2023-01-28T10:35:55;2.10;75.90
33271;DHT22;53180;51.344;6.152;2023-01-28T10:38:26;2.10;75.60
33271;DHT22;53180;51.344;6.152;2023-01-28T10:40:59;2.10;75.20
33271;DHT22;53180;51.344;6.152;2023-01-28T10:43:31;2.10;75.60
33271;DHT22;53180;51.344;6.152;2023-01-28T10:46:04;2.10;75.40
33271;DHT22;53180;51.344;6.152;2023-01-28T10:48:37;2.10;75.50
33271;DHT22;53180;51.344;6.152;2023-01-28T10:51:08;2.10;76.20
33271;DHT22;53180;51.344;6.152;2023-01-28T10:53:40;2.20;76.10
33271;DHT22;53180;51.344;6.152;2023-01-28T10:56:12;2.10;75.00
33271;DHT22;53180;51.344;6.152;2023-01-28T10:58:56;2.00;75.30
33271;DHT22;53180;51.344;6.152;2023-01-28T11:01:38;2.00;75.60
33271;DHT22;53180;51.344;6.152;2023-01-28T11:04:18;2.00;75.00
33271;DHT22;53180;51.344;6.152;2023-01-28T11:06:53;2.00;75.10
33271;DHT22;53180;51.344;6.152;2023-01-28T11:09:26;2.00;75.40
33271;DHT22;53180;51.344;6.152;2023-01-28T11:11:56;2.00;75.40
33271;DHT22;53180;51.344;6.152;2023-01-28T11:14:26;2.00;75.00
33271;DHT22;53180;51.344;6.152;2023-01-28T11:16:56;1.90;75.70
33271;DHT22;53180;51.344;6.152;2023-01-28T11:19:30;1.90;75.00
33271;DHT22;53180;51.344;6.152;2023-01-28T11:22:01;1.90;75.30
33271;DHT22;53180;51.344;6.152;2023-01-28T11:24:33;1.90;75.40
33271;DHT22;53180;51.344;6.152;2023-01-28T11:27:11;1.90;75.00
33271;DHT22;53180;51.344;6.152;2023-01-28T11:29:43;1.90;74.70
33271;DHT22;53180;51.344;6.152;2023-01-28T11:32:18;1.80;74.10
33271;DHT22;53180;51.344;6.152;2023-01-28T11:34:49;1.70;74.20
33271;DHT22;53180;51.344;6.152;2023-01-28T11:37:19;1.70;74.60
33271;DHT22;53180;51.344;6.152;2023-01-28T11:40:00;1.70;74.90
33271;DHT22;53180;51.344;6.152;2023-01-28T11:42:47;1.70;74.50
33271;DHT22;53180;51.344;6.152;2023-01-28T11:45:21;1.70;74.30
33271;DHT22;53180;51.344;6.152;2023-01-28T11:48:03;1.70;75.20
33271;DHT22;53180;51.344;6.152;2023-01-28T11:50:43;1.80;75.00
33271;DHT22;53180;51.344;6.152;2023-01-28T11:53:27;1.80;74.90
33271;DHT22;53180;51.344;6.152;2023-01-28T11:56:17;1.70;74.80
33271;DHT22;53180;51.344;6.152;2023-01-28T11:58:59;1.80;74.90
33271;DHT22;53180;51.344;6.152;2023-01-28T12:01:42;1.80;74.80
33271;DHT22;53180;51.344;6.152;2023-01-28T12:04:24;1.80;75.00
33271;DHT22;53180;51.344;6.152;2023-01-28T12:07:15;1.80;74.80
33271;DHT22;53180;51.344;6.152;2023-01-28T12:09:55;1.80;74.50
33271;DHT22;53180;51.344;6.152;2023-01-28T12:12:39;1.80;74.60
33271;DHT22;53180;51.344;6.152;2023-01-28T12:15:44;1.80;74.10
33271;DHT22;53180;51.344;6.152;2023-01-28T12:18:30;1.80;73.80
33271;DHT22;53180;51.344;6.152;2023-01-28T12:21:06;1.90;74.20
33271;DHT22;53180;51.344;6.152;2023-01-28T12:23:49;1.90;74.30
33271;DHT22;53180;51.344;6.152;2023-01-28T12:26:29;2.00;73.80
33271;DHT22;53180;51.344;6.152;2023-01-28T12:29:16;2.00;73.90
33271;DHT22;53180;51.344;6.152;2023-01-28T12:32:00;2.20;73.70
33271;DHT22;53180;51.344;6.152;2023-01-28T12:37:51;2.40;73.00
33271;DHT22;53180;51.344;6.152;2023-01-28T12:40:39;2.40;73.20
33271;DHT22;53180;51.344;6.152;2023-01-28T12:43:16;2.50;72.50
33271;DHT22;53180;51.344;6.152;2023-01-28T12:45:53;2.60;72.00
33271;DHT22;53180;51.344;6.152;2023-01-28T12:48:27;2.60;71.80
33271;DHT22;53180;51.344;6.152;2023-01-28T12:51:02;2.60;72.30
33271;DHT22;53180;51.344;6.152;2023-01-28T12:53:39;2.70;72.30
33271;DHT22;53180;51.344;6.152;2023-01-28T12:56:13;2.90;72.00
33271;DHT22;53180;51.344;6.152;2023-01-28T12:58:47;3.00;71.60
33271;DHT22;53180;51.344;6.152;2023-01-28T13:01:24;2.90;71.10
33271;DHT22;53180;51.344;6.152;2023-01-28T13:04:02;2.80;71.70
33271;DHT22;53180;51.344;6.152;2023-01-28T13:06:38;2.80;71.60
33271;DHT22;53180;51.344;6.152;2023-01-28T13:09:15;2.70;71.40
33271;DHT22;53180;51.344;6.152;2023-01-28T13:11:46;2.60;72.00
33271;DHT22;53180;51.344;6.152;2023-01-28T13:14:16;2.60;71.90
33271;DHT22;53180;51.344;6.152;2023-01-28T13:16:46;2.50;71.80
33271;DHT22;53180;51.344;6.152;2023-01-28T13:19:23;2.40;71.90
33271;DHT22;53180;51.344;6.152;2023-01-28T13:21:52;2.40;72.50
33271;DHT22;53180;51.344;6.152;2023-01-28T13:24:30;2.40;72.30
33271;DHT22;53180;51.344;6.152;2023-01-28T13:27:10;2.30;72.20
33271;DHT22;53180;51.344;6.152;2023-01-28T13:29:40;2.20;72.70
33271;DHT22;53180;51.344;6.152;2023-01-28T13:32:31;2.20;72.50
33271;DHT22;53180;51.344;6.152;2023-01-28T13:35:05;2.10;72.90
33271;DHT22;53180;51.344;6.152;2023-01-28T13:37:37;2.20;72.90
33271;DHT22;53180;51.344;6.152;2023-01-28T13:40:22;2.10;72.20
33271;DHT22;53180;51.344;6.152;2023-01-28T13:43:01;2.10;72.80
33271;DHT22;53180;51.344;6.152;2023-01-28T13:45:31;2.10;72.90
33271;DHT22;53180;51.344;6.152;2023-01-28T13:48:17;2.10;72.80
33271;DHT22;53180;51.344;6.152;2023-01-28T13:50:51;2.10;72.90
33271;DHT22;53180;51.344;6.152;2023-01-28T13:53:27;2.10;73.10
33271;DHT22;53180;51.344;6.152;2023-01-28T13:56:05;2.10;72.20
33271;DHT22;53180;51.344;6.152;2023-01-28T13:59:07;2.20;72.90
33271;DHT22;53180;51.344;6.152;2023-01-28T14:02:25;2.20;72.90
33271;DHT22;53180;51.344;6.152;2023-01-28T14:08:42;2.30;72.60
33271;DHT22;53180;51.344;6.152;2023-01-28T14:11:32;2.20;72.10
33271;DHT22;53180;51.344;6.152;2023-01-28T14:14:25;2.20;72.00
33271;DHT22;53180;51.344;6.152;2023-01-28T14:17:04;2.20;72.30
33271;DHT22;53180;51.344;6.152;2023-01-28T14:19:37;2.20;71.80
33271;DHT22;53180;51.344;6.152;2023-01-28T14:22:08;2.30;72.40
33271;DHT22;53180;51.344;6.152;2023-01-28T14:24:36;2.30;72.30
33271;DHT22;53180;51.344;6.152;2023-01-28T14:27:08;2.30;72.60
33271;DHT22;53180;51.344;6.152;2023-01-28T14:29:54;2.30;72.30
33271;DHT22;53180;51.344;6.152;2023-01-28T14:32:32;2.30;71.30
33271;DHT22;53180;51.344;6.152;2023-01-28T14:35:05;2.20;71.40
33271;DHT22;53180;51.344;6.152;2023-01-28T14:37:37;2.20;71.80
33271;DHT22;53180;51.344;6.152;2023-01-28T14:40:10;2.10;72.10
33271;DHT22;53180;51.344;6.152;2023-01-28T14:42:42;2.20;72.20
33271;DHT22;53180;51.344;6.152;2023-01-28T14:45:25;2.10;71.70
33271;DHT22;53180;51.344;6.152;2023-01-28T14:48:23;2.10;72.20
33271;DHT22;53180;51.344;6.152;2023-01-28T14:51:02;2.10;72.40
33271;DHT22;53180;51.344;6.152;2023-01-28T14:54:11;2.10;72.60
33271;DHT22;53180;51.344;6.152;2023-01-28T14:56:55;2.00;72.60
33271;DHT22;53180;51.344;6.152;2023-01-28T14:59:37;2.00;72.70
33271;DHT22;53180;51.344;6.152;2023-01-28T15:02:17;1.90;72.30
33271;DHT22;53180;51.344;6.152;2023-01-28T15:04:47;1.90;73.00
33271;DHT22;53180;51.344;6.152;2023-01-28T15:07:18;1.90;72.60
33271;DHT22;53180;51.344;6.152;2023-01-28T15:09:59;1.90;72.80
33271;DHT22;53180;51.344;6.152;2023-01-28T15:12:28;1.90;73.80
33271;DHT22;53180;51.344;6.152;2023-01-28T15:15:07;1.90;73.80
33271;DHT22;53180;51.344;6.152;2023-01-28T15:17:37;1.90;73.30
33271;DHT22;53180;51.344;6.152;2023-01-28T15:20:07;1.90;73.10
33271;DHT22;53180;51.344;6.152;2023-01-28T15:22:36;1.80;72.90
33271;DHT22;53180;51.344;6.152;2023-01-28T15:25:15;1.80;73.00
33271;DHT22;53180;51.344;6.152;2023-01-28T15:27:44;1.70;74.10
33271;DHT22;53180;51.344;6.152;2023-01-28T15:30:25;1.70;74.10
33271;DHT22;53180;51.344;6.152;2023-01-28T15:33:01;1.80;74.10
33271;DHT22;53180;51.344;6.152;2023-01-28T15:35:32;1.80;74.50
33271;DHT22;53180;51.344;6.152;2023-01-28T15:38:03;1.80;74.50
33271;DHT22;53180;51.344;6.152;2023-01-28T15:40:40;1.80;74.40
33271;DHT22;53180;51.344;6.152;2023-01-28T15:43:17;1.70;74.50
33271;DHT22;53180;51.344;6.152;2023-01-28T15:45:51;1.70;74.70
33271;DHT22;53180;51.344;6.152;2023-01-28T15:48:23;1.70;74.70
33271;DHT22;53180;51.344;6.152;2023-01-28T15:50:58;1.60;74.30
33271;DHT22;53180;51.344;6.152;2023-01-28T15:53:30;1.60;74.50
33271;DHT22;53180;51.344;6.152;2023-01-28T15:56:08;1.50;75.00
33271;DHT22;53180;51.344;6.152;2023-01-28T15:58:37;1.50;75.30
33271;DHT22;53180;51.344;6.152;2023-01-28T16:01:13;1.40;75.30
33271;DHT22;53180;51.344;6.152;2023-01-28T16:03:45;1.40;75.90
33271;DHT22;53180;51.344;6.152;2023-01-28T16:06:16;1.30;75.70
33271;DHT22;53180;51.344;6.152;2023-01-28T16:08:50;1.20;76.00
33271;DHT22;53180;51.344;6.152;2023-01-28T16:11:23;1.20;76.20
33271;DHT22;53180;51.344;6.152;2023-01-28T16:13:54;1.20;76.00
33271;DHT22;53180;51.344;6.152;2023-01-28T16:16:26;1.20;76.20
33271;DHT22;53180;51.344;6.152;2023-01-28T16:18:56;1.10;76.60
33271;DHT22;53180;51.344;6.152;2023-01-28T16:21:27;1.00;76.90
33271;DHT22;53180;51.344;6.152;2023-01-28T16:24:00;0.90;77.00
33271;DHT22;53180;51.344;6.152;2023-01-28T16:26:32;0.90;77.90
33271;DHT22;53180;51.344;6.152;2023-01-28T16:29:12;0.80;77.90
33271;DHT22;53180;51.344;6.152;2023-01-28T16:31:42;0.80;77.50
33271;DHT22;53180;51.344;6.152;2023-01-28T16:34:11;0.70;77.50